Deer Park, Alabama
Current Conditions -  °F | °C
As of 3:32 PM on Sunday 23 Nov 2014 (Local Time) from KMOB Reporting Station
Scattered Clouds Scattered Clouds  
Wind Chill: 67°   Ceiling: Unl
Heat Index: 67°   Visibility: 10mi
Dew Point: 61°   Wind: 13mph
Humidity: 81%   Direction: 220°SW
Pressure: 29.67"   Gusts: 24mph
Location:  31.22°N, 88.31°W
Report Text: KMOB 232132Z 22011G21KT 10SM SCT020 19/16 A2967 RMK AO2 T01940161 $
Loading
Personal Weather Stations






























Interactive Weather Map New forecast layout! Learn more

10-Day Weather Forecast

Advertisements
Track Severe Weather on mobile